createdAt,value
2019-06-07T00:00:40.311Z,16.77
2019-06-07T00:05:48.672Z,17.13
2019-06-07T00:10:55.935Z,18.13
2019-06-07T00:16:03.320Z,18.13
2019-06-07T00:21:11.794Z,16.97
2019-06-07T00:26:21.219Z,17.80
2019-06-07T00:31:29.499Z,18.03
2019-06-07T00:36:37.684Z,18.63
2019-06-07T00:41:45.423Z,18.07
2019-06-07T00:46:52.676Z,17.90
2019-06-07T00:52:00.018Z,19.07
2019-06-07T00:57:07.688Z,17.90
2019-06-07T01:02:18.551Z,18.63
2019-06-07T01:07:26.021Z,18.83
2019-06-07T01:12:33.280Z,19.40
2019-06-07T01:18:32.123Z,18.10
2019-06-07T01:22:51.648Z,19.57
2019-06-07T01:27:59.473Z,18.13
2019-06-07T01:33:10.011Z,18.67
2019-06-07T01:38:21.323Z,17.73
2019-06-07T01:43:30.463Z,18.67
2019-06-07T01:48:49.053Z,19.50
2019-06-07T01:53:46.363Z,20.80
2019-06-07T01:58:53.702Z,18.90
2019-06-07T02:04:01.112Z,19.53
2019-06-07T02:09:09.337Z,19.87
2019-06-07T02:14:17.380Z,20.27
2019-06-07T02:19:27.459Z,18.67
2019-06-07T02:24:36.466Z,20.00
2019-06-07T02:29:44.839Z,20.43
2019-06-07T02:34:51.998Z,20.77
2019-06-07T02:40:00.278Z,21.40
2019-06-07T02:45:10.863Z,19.23
2019-06-07T02:50:19.532Z,21.50
2019-06-07T02:55:31.214Z,22.23
2019-06-07T03:01:09.045Z,22.07
2019-06-07T03:06:00.290Z,22.20
2019-06-07T03:11:08.653Z,22.70
2019-06-07T03:16:20.211Z,21.90
2019-06-07T03:21:31.326Z,23.37
2019-06-07T03:27:30.543Z,22.10
2019-06-07T03:31:49.191Z,22.00
2019-06-07T03:36:56.563Z,21.70
2019-06-07T03:42:06.708Z,22.60
2019-06-07T03:47:13.368Z,21.17
2019-06-07T03:52:20.794Z,21.03
2019-06-07T03:57:30.376Z,21.63
2019-06-07T04:02:41.519Z,20.47
2019-06-07T04:07:47.264Z,21.00
2019-06-07T04:12:54.609Z,21.40
2019-06-07T04:18:04.014Z,23.17
2019-06-07T04:23:27.288Z,23.23
2019-06-07T04:28:20.987Z,23.73
2019-06-07T04:33:50.153Z,23.80
2019-06-07T04:38:59.012Z,24.70
2019-06-07T04:44:16.025Z,22.73
2019-06-07T04:49:27.239Z,22.43
2019-06-07T04:54:52.493Z,22.77
2019-06-07T05:00:12.742Z,24.07
2019-06-07T05:05:29.294Z,24.27
2019-06-07T05:10:43.065Z,26.73
2019-06-07T05:15:48.853Z,27.23
2019-06-07T05:21:15.478Z,26.33
2019-06-07T05:26:30.479Z,26.80
2019-06-07T05:31:44.201Z,26.13
2019-06-07T05:37:11.123Z,27.50
2019-06-07T05:42:03.775Z,26.53
2019-06-07T05:47:29.608Z,26.03
2019-06-07T05:52:40.491Z,25.87
2019-06-07T05:57:50.969Z,26.03
2019-06-07T06:03:05.493Z,26.30
2019-06-07T06:08:06.792Z,27.27
2019-06-07T06:13:14.665Z,28.17
2019-06-07T06:18:45.737Z,28.10
2019-06-07T06:23:53.840Z,27.20
2019-06-07T06:29:01.366Z,29.17
2019-06-07T06:34:09.422Z,28.83
2019-06-07T06:39:16.806Z,26.53
2019-06-07T06:44:24.624Z,29.00
2019-06-07T06:49:31.880Z,27.67
2019-06-07T06:54:46.092Z,24.80
2019-06-07T06:59:51.090Z,25.17
2019-06-07T07:05:17.235Z,26.70
2019-06-07T07:10:45.736Z,26.20
2019-06-07T07:15:58.172Z,25.60
2019-06-07T07:21:02.945Z,25.17
2019-06-07T07:26:12.500Z,24.43
2019-06-07T07:31:19.695Z,25.70
2019-06-07T07:36:38.655Z,23.87
2019-06-07T07:42:13.826Z,22.10
2019-06-07T07:46:58.004Z,20.33
2019-06-07T07:52:05.443Z,21.17
2019-06-07T07:57:30.938Z,19.57
2019-06-07T08:02:38.413Z,20.23
2019-06-07T08:07:49.985Z,20.50
2019-06-07T08:13:19.182Z,19.80
2019-06-07T08:18:05.862Z,20.60
2019-06-07T08:23:31.548Z,21.33
2019-06-07T08:28:38.853Z,22.97
2019-06-07T08:33:47.771Z,22.70
2019-06-07T08:39:00.442Z,21.43
2019-06-07T08:44:22.403Z,19.87
2019-06-07T08:49:29.322Z,21.87
2019-06-07T08:54:36.803Z,20.97
2019-06-07T08:59:53.041Z,20.67
2019-06-07T09:05:10.715Z,19.00
2019-06-07T09:10:15.176Z,19.60
2019-06-07T09:15:24.435Z,18.10
2019-06-07T09:20:49.966Z,18.63
2019-06-07T09:26:09.839Z,20.53
2019-06-07T09:31:10.414Z,20.17
2019-06-07T09:36:16.275Z,20.80
2019-06-07T09:41:45.534Z,20.43
2019-06-07T09:46:35.106Z,20.00
2019-06-07T09:51:42.339Z,19.37
2019-06-07T09:56:50.308Z,19.90
2019-06-07T10:01:59.528Z,20.57
2019-06-07T10:07:16.956Z,19.40
2019-06-07T10:12:28.038Z,19.67
2019-06-07T10:17:36.390Z,16.33
2019-06-07T10:23:03.709Z,14.27
2019-06-07T10:28:29.474Z,13.73
2019-06-07T10:33:54.690Z,13.73
2019-06-07T10:39:03.110Z,15.33
2019-06-07T10:44:12.066Z,13.63
2019-06-07T10:49:19.298Z,15.03
2019-06-07T10:54:30.665Z,14.53
2019-06-07T10:59:37.020Z,14.60
2019-06-07T11:04:44.284Z,14.47
2019-06-07T11:10:06.297Z,13.13
2019-06-07T11:15:02.157Z,15.43
2019-06-07T11:20:12.477Z,13.23
2019-06-07T11:25:38.074Z,15.57
2019-06-07T11:30:45.322Z,14.50
2019-06-07T11:35:53.211Z,13.23
2019-06-07T11:41:01.248Z,13.30
2019-06-07T11:46:12.948Z,13.53
2019-06-07T11:51:21.208Z,12.93
2019-06-07T11:56:28.845Z,12.10
2019-06-07T12:01:37.381Z,11.40
2019-06-07T12:06:45.625Z,11.60
2019-06-07T12:11:52.820Z,11.77
2019-06-07T12:17:01.291Z,10.70
2019-06-07T12:22:09.870Z,10.43
2019-06-07T12:27:26.441Z,10.53
2019-06-07T12:32:33.743Z,9.50
2019-06-07T12:37:44.872Z,8.13
2019-06-07T12:42:53.173Z,8.47
2019-06-07T12:48:01.357Z,8.53
2019-06-07T12:53:09.198Z,6.93
2019-06-07T12:58:16.363Z,8.37
2019-06-07T13:03:24.696Z,7.93
2019-06-07T13:08:38.716Z,7.40
2019-06-07T13:13:48.780Z,6.90
2019-06-07T13:18:56.672Z,6.70
2019-06-07T13:24:03.904Z,6.73
2019-06-07T13:29:31.990Z,7.70
2019-06-07T13:34:51.308Z,7.37
2019-06-07T13:39:58.633Z,8.40
2019-06-07T13:45:08.424Z,8.67
2019-06-07T13:50:33.827Z,9.70
2019-06-07T13:55:53.910Z,8.50
2019-06-07T14:01:01.091Z,9.30
2019-06-07T14:06:10.316Z,9.20
2019-06-07T14:11:50.132Z,10.40
2019-06-07T14:16:55.005Z,9.40
2019-06-07T14:22:03.473Z,8.80
2019-06-07T14:27:29.721Z,9.50
2019-06-07T14:32:52.757Z,9.80
2019-06-07T14:38:00.826Z,9.47
2019-06-07T14:43:08.146Z,10.23
2019-06-07T14:48:27.888Z,10.10
2019-06-07T14:53:53.534Z,10.23
2019-06-07T14:59:02.660Z,10.30
2019-06-07T15:04:10.908Z,10.10
2019-06-07T15:09:37.359Z,11.30
2019-06-07T15:14:54.118Z,11.50
2019-06-07T15:20:06.846Z,11.57
2019-06-07T15:25:15.922Z,11.30
2019-06-07T15:30:23.337Z,10.97
2019-06-07T15:35:35.959Z,11.07
2019-06-07T15:40:42.432Z,11.20
2019-06-07T15:46:02.326Z,11.10
2019-06-07T15:51:30.548Z,10.20
2019-06-07T15:56:49.981Z,10.73
2019-06-07T16:01:57.574Z,10.03
2019-06-07T16:07:08.568Z,9.87
2019-06-07T16:12:18.471Z,10.50
2019-06-07T16:17:28.302Z,10.23
2019-06-07T16:22:35.873Z,10.97
2019-06-07T16:27:44.794Z,11.13
2019-06-07T16:32:52.374Z,11.20
2019-06-07T16:38:00.718Z,10.93
2019-06-07T16:43:17.537Z,10.90
2019-06-07T16:48:20.099Z,11.10
2019-06-07T16:53:27.936Z,11.67
2019-06-07T16:58:35.348Z,11.67
2019-06-07T17:03:43.533Z,11.20
2019-06-07T17:08:50.979Z,11.27
2019-06-07T17:13:59.277Z,10.87
2019-06-07T17:19:07.663Z,11.03
2019-06-07T17:24:16.347Z,10.60
2019-06-07T17:29:24.226Z,10.77
2019-06-07T17:34:35.492Z,11.13
2019-06-07T17:39:44.979Z,11.37
2019-06-07T17:44:52.319Z,10.43
2019-06-07T17:49:59.361Z,10.10
2019-06-07T17:55:11.709Z,10.30
2019-06-07T18:00:33.269Z,10.93
2019-06-07T18:05:32.885Z,10.83
2019-06-07T18:10:40.814Z,11.70
2019-06-07T18:16:07.701Z,10.97
2019-06-07T18:21:33.265Z,11.37
2019-06-07T18:26:42.418Z,11.30
2019-06-07T18:31:49.223Z,16.77
2019-06-07T18:37:02.973Z,11.83
2019-06-07T18:42:28.288Z,11.63
2019-06-07T18:47:53.730Z,12.37
2019-06-07T18:53:02.481Z,11.67
2019-06-07T18:58:12.941Z,11.43
2019-06-07T19:03:21.238Z,12.10
2019-06-07T19:08:52.157Z,11.93
2019-06-07T19:14:03.624Z,11.93
2019-06-07T19:19:11.188Z,12.17
2019-06-07T19:24:18.225Z,11.40
2019-06-07T19:29:26.174Z,14.60
2019-06-07T19:34:33.514Z,12.23
2019-06-07T19:39:41.555Z,12.90
2019-06-07T19:44:54.368Z,11.97
2019-06-07T19:49:58.810Z,12.73
2019-06-07T19:55:09.723Z,12.43
2019-06-07T20:00:17.325Z,13.80
2019-06-07T20:05:28.485Z,12.20
2019-06-07T20:10:35.489Z,13.67
2019-06-07T20:15:44.616Z,12.97
2019-06-07T20:20:51.596Z,13.17
2019-06-07T20:26:00.110Z,14.03
2019-06-07T20:31:08.211Z,13.37
2019-06-07T20:36:16.447Z,13.53
2019-06-07T20:41:24.401Z,14.53
2019-06-07T20:46:31.295Z,12.60
2019-06-07T20:51:38.379Z,12.40
2019-06-07T20:56:45.538Z,13.87
2019-06-07T21:01:56.320Z,12.40
2019-06-07T21:07:08.136Z,12.63
2019-06-07T21:12:28.622Z,10.13
2019-06-07T21:17:37.622Z,14.20
2019-06-07T21:22:45.719Z,10.20
2019-06-07T21:27:52.733Z,12.60
2019-06-07T21:33:01.357Z,12.10
2019-06-07T21:38:09.927Z,13.13
2019-06-07T21:43:17.134Z,11.07
2019-06-07T21:48:28.841Z,21.07
2019-06-07T21:53:54.501Z,11.80
2019-06-07T21:59:03.459Z,11.33
2019-06-07T22:04:11.720Z,10.73
2019-06-07T22:09:36.827Z,10.70
2019-06-07T22:14:44.610Z,10.20
2019-06-07T22:19:51.720Z,11.57
2019-06-07T22:24:59.230Z,11.73
2019-06-07T22:30:10.515Z,10.80
2019-06-07T22:35:17.690Z,10.50
2019-06-07T22:40:25.824Z,10.07
2019-06-07T22:45:33.256Z,9.60
2019-06-07T23:09:02.111Z,10.47
2019-06-07T23:14:11.213Z,10.53
2019-06-07T23:19:18.535Z,10.90
2019-06-07T23:24:26.618Z,7.07
2019-06-07T23:29:34.160Z,4.77
2019-06-07T23:34:42.164Z,3.77
2019-06-07T23:39:49.711Z,2.60
2019-06-07T23:44:58.325Z,2.77
2019-06-07T23:50:08.359Z,2.20
2019-06-07T23:55:33.612Z,1.90
